LIMP/PMF METAR and TAF weather

Enter ICAO airport designator
Station Type Date Time Source
LIMP METAR 2020/09/19 18:50 UTC NOAA

LIMP 191850Z 06003KT CAVOK 21/15 Q1017


Station Type Date Time Source
LIMP Decoded METAR 2020/09/19 18:50 UTC NOAA

Parma, Italy (LIMP) 44-49-17N 010-17-41E
Sep 19, 2020 - 02:50 PM EDT / 2020.09.19 1850 UTC
Wind: from the ENE (060 degrees) at 3 MPH (3 KT):0
Visibility: greater than 7 mile(s):0
Temperature: 69 F (21 C)
Dew Point: 59 F (15 C)
Relative Humidity: 68%
Pressure (altimeter): 30.03 in. Hg (1017 hPa)
ob: LIMP 191850Z 06003KT CAVOK 21/15 Q1017
cycle: 19

Station Type Date Time Source
LIMP TAF 2020/09/19 18:21 UTC NOAA

TAF LIMP 191700Z 1918/2018 VRB05KT 9999 SCT050
TEMPO 2012/2018 4000 SHRA

Example: see airport list